createdAt,value
2019-02-03T00:01:00.000Z,97239
2019-02-03T00:07:00.000Z,97223
2019-02-03T00:12:00.000Z,97221
2019-02-03T00:17:00.000Z,97212
2019-02-03T00:22:00.000Z,97205
2019-02-03T00:27:00.000Z,97208
2019-02-03T00:32:00.000Z,97205
2019-02-03T00:37:00.000Z,97211
2019-02-03T00:42:00.000Z,97206
2019-02-03T00:47:00.000Z,97200
2019-02-03T00:52:00.000Z,97202
2019-02-03T00:57:00.000Z,97189
2019-02-03T01:02:00.000Z,97219
2019-02-03T01:07:00.000Z,97211
2019-02-03T01:12:00.000Z,97213
2019-02-03T01:17:00.000Z,97209
2019-02-03T01:22:00.000Z,97196
2019-02-03T01:27:00.000Z,97187
2019-02-03T01:32:00.000Z,97189
2019-02-03T01:37:00.000Z,97187
2019-02-03T01:42:00.000Z,97189
2019-02-03T01:47:00.000Z,97184
2019-02-03T01:52:00.000Z,97190
2019-02-03T01:57:00.000Z,97200
2019-02-03T02:02:00.000Z,97190
2019-02-03T02:07:00.000Z,97199
2019-02-03T02:12:00.000Z,97205
2019-02-03T02:17:00.000Z,97207
2019-02-03T02:22:00.000Z,97181
2019-02-03T02:27:00.000Z,97175
2019-02-03T02:32:00.000Z,97157
2019-02-03T02:37:00.000Z,97154
2019-02-03T02:43:00.000Z,97138
2019-02-03T02:48:00.000Z,97152
2019-02-03T02:53:00.000Z,97147
2019-02-03T02:58:00.000Z,97138
2019-02-03T03:03:00.000Z,97134
2019-02-03T03:08:00.000Z,97129
2019-02-03T03:13:00.000Z,97122
2019-02-03T03:18:00.000Z,97144
2019-02-03T03:23:00.000Z,97148
2019-02-03T03:28:00.000Z,97147
2019-02-03T03:33:00.000Z,97152
2019-02-03T03:38:00.000Z,97170
2019-02-03T03:43:00.000Z,97183
2019-02-03T03:48:00.000Z,97172
2019-02-03T03:53:00.000Z,97177
2019-02-03T03:58:00.000Z,97179
2019-02-03T04:03:00.000Z,97150
2019-02-03T04:08:00.000Z,97160
2019-02-03T04:13:00.000Z,97176
2019-02-03T04:18:00.000Z,97166
2019-02-03T04:23:00.000Z,97172
2019-02-03T04:28:00.000Z,97166
2019-02-03T04:33:00.000Z,97155
2019-02-03T04:38:00.000Z,97138
2019-02-03T04:43:00.000Z,97148
2019-02-03T04:48:00.000Z,97164
2019-02-03T04:54:00.000Z,97148
2019-02-03T04:59:00.000Z,97119
2019-02-03T05:04:00.000Z,97120
2019-02-03T05:09:00.000Z,97131
2019-02-03T05:14:00.000Z,97170
2019-02-03T05:19:00.000Z,97172
2019-02-03T05:24:00.000Z,97197
2019-02-03T05:29:00.000Z,97202
2019-02-03T05:34:00.000Z,97219
2019-02-03T05:39:00.000Z,97202
2019-02-03T05:44:00.000Z,97227
2019-02-03T05:49:00.000Z,97194
2019-02-03T05:54:00.000Z,97207
2019-02-03T05:59:00.000Z,97228
2019-02-03T06:04:00.000Z,97226
2019-02-03T06:09:00.000Z,97215
2019-02-03T06:14:00.000Z,97233
2019-02-03T06:19:00.000Z,97247
2019-02-03T06:24:00.000Z,97234
2019-02-03T06:29:00.000Z,97250
2019-02-03T06:34:00.000Z,97276
2019-02-03T06:39:00.000Z,97261
2019-02-03T06:44:00.000Z,97259
2019-02-03T06:49:00.000Z,97241
2019-02-03T06:54:00.000Z,97233
2019-02-03T06:59:00.000Z,97218
2019-02-03T07:04:00.000Z,97241
2019-02-03T07:09:00.000Z,97257
2019-02-03T07:15:00.000Z,97252
2019-02-03T07:20:00.000Z,97279
2019-02-03T07:25:00.000Z,97270
2019-02-03T07:30:00.000Z,97276
2019-02-03T07:35:00.000Z,97302
2019-02-03T07:40:00.000Z,97321
2019-02-03T07:45:00.000Z,97313
2019-02-03T07:50:00.000Z,97329
2019-02-03T07:55:00.000Z,97357
2019-02-03T08:00:00.000Z,97374
2019-02-03T08:05:00.000Z,97370
2019-02-03T08:10:00.000Z,97381
2019-02-03T08:15:00.000Z,97398
2019-02-03T08:20:00.000Z,97416
2019-02-03T08:25:00.000Z,97404
2019-02-03T08:30:00.000Z,97394
2019-02-03T08:35:00.000Z,97409
2019-02-03T08:40:00.000Z,97437
2019-02-03T08:45:00.000Z,97459
2019-02-03T08:50:00.000Z,97446
2019-02-03T08:55:00.000Z,97435
2019-02-03T09:00:00.000Z,97481
2019-02-03T09:05:00.000Z,97474
2019-02-03T09:10:00.000Z,97492
2019-02-03T09:15:00.000Z,97515
2019-02-03T09:20:00.000Z,97518
2019-02-03T09:25:00.000Z,97533
2019-02-03T09:30:00.000Z,97560
2019-02-03T09:35:00.000Z,97560
2019-02-03T09:40:00.000Z,97566
2019-02-03T09:46:00.000Z,97580
2019-02-03T09:51:00.000Z,97585
2019-02-03T09:56:00.000Z,97596
2019-02-03T10:01:00.000Z,97586
2019-02-03T10:06:00.000Z,97598
2019-02-03T10:11:00.000Z,97602
2019-02-03T10:16:00.000Z,97576
2019-02-03T10:21:00.000Z,97612
2019-02-03T10:26:00.000Z,97614
2019-02-03T10:31:00.000Z,97629
2019-02-03T10:36:00.000Z,97623
2019-02-03T10:41:00.000Z,97622
2019-02-03T10:46:00.000Z,97633
2019-02-03T10:51:00.000Z,97633
2019-02-03T10:56:00.000Z,97638
2019-02-03T11:01:00.000Z,97664
2019-02-03T11:06:00.000Z,97674
2019-02-03T11:11:00.000Z,97666
2019-02-03T11:16:00.000Z,97643
2019-02-03T11:21:00.000Z,97609
2019-02-03T11:26:00.000Z,97604
2019-02-03T11:31:00.000Z,97635
2019-02-03T11:36:00.000Z,97620
2019-02-03T11:41:00.000Z,97660
2019-02-03T11:46:00.000Z,97691
2019-02-03T11:51:00.000Z,97685
2019-02-03T12:02:00.000Z,97692
2019-02-03T12:07:00.000Z,97687
2019-02-03T12:12:00.000Z,97696
2019-02-03T12:17:00.000Z,97700
2019-02-03T12:22:00.000Z,97710
2019-02-03T12:27:00.000Z,97688
2019-02-03T12:32:00.000Z,97676
2019-02-03T12:37:00.000Z,97697
2019-02-03T12:42:00.000Z,97718
2019-02-03T12:47:00.000Z,97728
2019-02-03T12:52:00.000Z,97735
2019-02-03T12:57:00.000Z,97718
2019-02-03T13:02:00.000Z,97736
2019-02-03T13:07:00.000Z,97740
2019-02-03T13:12:00.000Z,97736
2019-02-03T13:17:00.000Z,97762
2019-02-03T13:22:00.000Z,97748
2019-02-03T13:27:00.000Z,97773
2019-02-03T13:32:00.000Z,97765
2019-02-03T13:37:00.000Z,97740
2019-02-03T13:42:00.000Z,97730
2019-02-03T13:48:00.000Z,97739
2019-02-03T13:53:00.000Z,97744
2019-02-03T13:58:00.000Z,97776
2019-02-03T14:03:00.000Z,97812
2019-02-03T14:08:00.000Z,97826
2019-02-03T14:13:00.000Z,97842
2019-02-03T14:18:00.000Z,97846
2019-02-03T14:23:00.000Z,97847
2019-02-03T14:28:00.000Z,97851
2019-02-03T14:33:00.000Z,97850
2019-02-03T14:38:00.000Z,97875
2019-02-03T14:43:00.000Z,97885
2019-02-03T14:48:00.000Z,97888
2019-02-03T14:53:00.000Z,97912
2019-02-03T14:58:00.000Z,97891
2019-02-03T15:03:00.000Z,97912
2019-02-03T15:08:00.000Z,97900
2019-02-03T15:13:00.000Z,97908
2019-02-03T15:18:00.000Z,97914
2019-02-03T15:23:00.000Z,97925
2019-02-03T15:28:00.000Z,97942
2019-02-03T15:33:00.000Z,97960
2019-02-03T15:38:00.000Z,97959
2019-02-03T15:43:00.000Z,97986
2019-02-03T15:48:00.000Z,98008
2019-02-03T15:53:00.000Z,98023
2019-02-03T15:58:00.000Z,98006
2019-02-03T16:03:00.000Z,98027
2019-02-03T16:08:00.000Z,98038
2019-02-03T16:13:00.000Z,98047
2019-02-03T16:18:00.000Z,98039
2019-02-03T16:23:00.000Z,98048
2019-02-03T16:28:00.000Z,98065
2019-02-03T16:33:00.000Z,98065
2019-02-03T16:38:00.000Z,98084
2019-02-03T16:43:00.000Z,98116
2019-02-03T16:48:00.000Z,98122
2019-02-03T16:53:00.000Z,98162
2019-02-03T16:58:00.000Z,98161
2019-02-03T17:03:00.000Z,98174
2019-02-03T17:08:00.000Z,98181
2019-02-03T17:13:00.000Z,98215
2019-02-03T17:19:00.000Z,98229
2019-02-03T17:24:00.000Z,98245
2019-02-03T17:29:00.000Z,98242
2019-02-03T17:34:00.000Z,98273
2019-02-03T17:39:00.000Z,98293
2019-02-03T17:44:00.000Z,98285
2019-02-03T17:49:00.000Z,98286
2019-02-03T17:54:00.000Z,98305
2019-02-03T17:59:00.000Z,98315
2019-02-03T18:04:00.000Z,98325
2019-02-03T18:09:00.000Z,98317
2019-02-03T18:14:00.000Z,98329
2019-02-03T18:19:00.000Z,98332
2019-02-03T18:24:00.000Z,98324
2019-02-03T18:29:00.000Z,98344
2019-02-03T18:34:00.000Z,98351
2019-02-03T18:39:00.000Z,98347
2019-02-03T18:44:00.000Z,98367
2019-02-03T18:49:00.000Z,98369
2019-02-03T18:54:00.000Z,98389
2019-02-03T18:59:00.000Z,98389
2019-02-03T19:04:00.000Z,98399
2019-02-03T19:09:00.000Z,98418
2019-02-03T19:14:00.000Z,98425
2019-02-03T19:19:00.000Z,98429
2019-02-03T19:24:00.000Z,98447
2019-02-03T19:29:00.000Z,98458
2019-02-03T19:34:00.000Z,98468
2019-02-03T19:39:00.000Z,98494
2019-02-03T19:44:00.000Z,98495
2019-02-03T19:49:00.000Z,98511
2019-02-03T19:54:00.000Z,98526
2019-02-03T20:00:00.000Z,98540
2019-02-03T20:05:00.000Z,98555
2019-02-03T20:10:00.000Z,98569
2019-02-03T20:15:00.000Z,98573
2019-02-03T20:20:00.000Z,98595
2019-02-03T20:25:00.000Z,98599
2019-02-03T20:30:00.000Z,98598
2019-02-03T20:35:00.000Z,98621
2019-02-03T20:40:00.000Z,98628
2019-02-03T20:45:00.000Z,98623
2019-02-03T20:50:00.000Z,98634
2019-02-03T20:55:00.000Z,98631
2019-02-03T21:00:00.000Z,98635
2019-02-03T21:05:00.000Z,98644
2019-02-03T21:10:00.000Z,98667
2019-02-03T21:15:00.000Z,98690
2019-02-03T21:20:00.000Z,98686
2019-02-03T21:25:00.000Z,98689
2019-02-03T21:30:00.000Z,98719
2019-02-03T21:35:00.000Z,98720
2019-02-03T21:40:00.000Z,98750
2019-02-03T21:45:00.000Z,98754
2019-02-03T21:50:00.000Z,98787
2019-02-03T21:55:00.000Z,98804
2019-02-03T22:00:00.000Z,98816
2019-02-03T22:05:00.000Z,98821
2019-02-03T22:10:00.000Z,98837
2019-02-03T22:15:00.000Z,98845
2019-02-03T22:20:00.000Z,98851
2019-02-03T22:25:00.000Z,98872
2019-02-03T22:30:00.000Z,98888
2019-02-03T22:35:00.000Z,98909
2019-02-03T22:40:00.000Z,98922
2019-02-03T22:46:00.000Z,98929
2019-02-03T22:51:00.000Z,98941
2019-02-03T22:56:00.000Z,98945
2019-02-03T23:01:00.000Z,98933
2019-02-03T23:06:00.000Z,98958
2019-02-03T23:11:00.000Z,98961
2019-02-03T23:16:00.000Z,98972
2019-02-03T23:21:00.000Z,98978
2019-02-03T23:26:00.000Z,99015
2019-02-03T23:31:00.000Z,99010
2019-02-03T23:36:00.000Z,99022
2019-02-03T23:41:00.000Z,99022
2019-02-03T23:46:00.000Z,99036
2019-02-03T23:51:00.000Z,99048
2019-02-03T23:56:00.000Z,99061
